createdAt,value
2023-01-17T00:01:54.008Z,1.20
2023-01-17T00:04:38.746Z,1.02
2023-01-17T00:07:23.487Z,1.15
2023-01-17T00:09:58.705Z,1.17
2023-01-17T00:12:26.021Z,1.00
2023-01-17T00:14:53.706Z,1.13
2023-01-17T00:17:20.356Z,1.63
2023-01-17T00:20:05.421Z,1.73
2023-01-17T00:22:50.179Z,0.88
2023-01-17T00:25:36.563Z,1.63
2023-01-17T00:28:03.329Z,1.10
2023-01-17T00:30:29.777Z,0.90
2023-01-17T00:32:56.023Z,1.30
2023-01-17T00:35:22.757Z,2.55
2023-01-17T00:37:49.299Z,1.10
2023-01-17T00:40:15.800Z,1.35
2023-01-17T00:42:42.046Z,1.40
2023-01-17T00:45:27.411Z,0.98
2023-01-17T00:48:12.171Z,1.25
2023-01-17T00:50:56.942Z,1.35
2023-01-17T00:53:41.559Z,0.70
2023-01-17T00:56:26.743Z,0.65
2023-01-17T00:59:14.151Z,0.40
2023-01-17T01:01:59.124Z,0.30
2023-01-17T01:04:44.107Z,0.60
2023-01-17T01:07:30.067Z,0.63
2023-01-17T01:10:14.949Z,0.40
2023-01-17T01:12:59.749Z,0.40
2023-01-17T01:15:44.407Z,0.40
2023-01-17T01:18:30.280Z,1.85
2023-01-17T01:21:20.188Z,0.35
2023-01-17T01:24:04.868Z,0.20
2023-01-17T01:26:49.625Z,0.45
2023-01-17T01:29:34.439Z,0.52
2023-01-17T01:32:19.160Z,0.77
2023-01-17T01:34:45.407Z,0.38
2023-01-17T01:37:11.730Z,0.43
2023-01-17T01:39:38.021Z,0.47
2023-01-17T01:42:14.487Z,0.30
2023-01-17T01:44:45.521Z,0.43
2023-01-17T01:47:12.972Z,0.28
2023-01-17T01:49:39.217Z,0.20
2023-01-17T01:52:06.599Z,0.85
2023-01-17T01:54:37.821Z,0.68
2023-01-17T01:57:06.503Z,0.50
2023-01-17T01:59:33.540Z,0.40
2023-01-17T02:01:59.813Z,0.32
2023-01-17T02:04:27.585Z,0.45
2023-01-17T02:06:58.409Z,0.50
2023-01-17T02:09:24.862Z,0.30
2023-01-17T02:11:51.201Z,0.35
2023-01-17T02:14:18.331Z,0.40
2023-01-17T02:16:57.478Z,0.30
2023-01-17T02:19:42.433Z,0.50
2023-01-17T02:22:08.636Z,0.20
2023-01-17T02:24:53.860Z,0.40
2023-01-17T02:27:35.470Z,0.70
2023-01-17T02:30:20.753Z,1.17
2023-01-17T02:32:47.032Z,0.82
2023-01-17T02:35:17.164Z,0.95
2023-01-17T02:37:55.449Z,0.90
2023-01-17T02:40:48.060Z,1.17
2023-01-17T02:43:15.752Z,0.65
2023-01-17T02:45:42.138Z,1.13
2023-01-17T02:48:09.564Z,1.00
2023-01-17T02:50:47.633Z,0.80
2023-01-17T02:53:26.073Z,1.50
2023-01-17T02:56:17.886Z,0.95
2023-01-17T02:59:04.439Z,0.68
2023-01-17T03:01:36.802Z,1.00
2023-01-17T03:04:03.100Z,0.98
2023-01-17T03:06:33.443Z,0.95
2023-01-17T03:09:00.118Z,0.98
2023-01-17T03:11:27.411Z,1.15
2023-01-17T03:13:59.507Z,1.42
2023-01-17T03:16:27.396Z,0.98
2023-01-17T03:18:56.720Z,0.95
2023-01-17T03:21:23.637Z,0.85
2023-01-17T03:23:49.907Z,0.90
2023-01-17T03:26:16.194Z,1.23
2023-01-17T03:28:42.531Z,0.80
2023-01-17T03:31:08.839Z,1.27
2023-01-17T03:33:35.126Z,0.75
2023-01-17T03:36:01.382Z,1.02
2023-01-17T03:38:28.434Z,1.08
2023-01-17T03:40:54.851Z,0.75
2023-01-17T03:43:21.251Z,0.75
2023-01-17T03:45:52.013Z,1.35
2023-01-17T03:48:18.609Z,1.33
2023-01-17T03:50:44.884Z,1.45
2023-01-17T03:53:11.154Z,1.40
2023-01-17T03:55:37.367Z,1.40
2023-01-17T03:58:03.664Z,1.10
2023-01-17T04:00:30.178Z,1.40
2023-01-17T04:02:56.470Z,1.20
2023-01-17T04:05:22.705Z,0.98
2023-01-17T04:07:48.980Z,0.80
2023-01-17T04:10:15.321Z,0.73
2023-01-17T04:12:41.723Z,1.02
2023-01-17T04:15:08.127Z,0.75
2023-01-17T04:17:34.450Z,1.70
2023-01-17T04:20:00.711Z,0.85
2023-01-17T04:22:27.037Z,0.90
2023-01-17T04:24:53.314Z,1.30
2023-01-17T04:27:19.592Z,1.17
2023-01-17T04:29:46.827Z,0.85
2023-01-17T04:32:13.134Z,0.98
2023-01-17T04:34:39.460Z,0.70
2023-01-17T04:37:05.785Z,0.80
2023-01-17T04:39:32.091Z,1.20
2023-01-17T04:41:58.381Z,0.80
2023-01-17T04:44:24.687Z,1.00
2023-01-17T04:46:50.959Z,1.20
2023-01-17T04:49:17.250Z,1.23
2023-01-17T04:51:43.528Z,0.70
2023-01-17T04:54:09.807Z,0.75
2023-01-17T04:56:36.105Z,1.05
2023-01-17T04:59:02.392Z,0.77
2023-01-17T05:01:28.768Z,0.73
2023-01-17T05:03:55.119Z,0.63
2023-01-17T05:06:21.404Z,1.20
2023-01-17T05:08:47.771Z,0.90
2023-01-17T05:11:14.108Z,1.40
2023-01-17T05:13:40.333Z,0.90
2023-01-17T05:16:06.749Z,1.00
2023-01-17T05:18:33.019Z,0.85
2023-01-17T05:21:02.919Z,1.40
2023-01-17T05:23:29.296Z,1.40
2023-01-17T05:25:55.614Z,1.55
2023-01-17T05:28:21.893Z,1.27
2023-01-17T05:30:48.211Z,1.30
2023-01-17T05:33:14.451Z,1.27
2023-01-17T05:35:40.735Z,0.80
2023-01-17T05:38:07.143Z,1.38
2023-01-17T05:40:33.816Z,1.05
2023-01-17T05:43:00.736Z,1.60
2023-01-17T05:45:27.988Z,1.42
2023-01-17T05:47:55.120Z,1.00
2023-01-17T05:50:23.082Z,1.20
2023-01-17T05:52:53.448Z,2.03
2023-01-17T05:55:20.410Z,2.00
2023-01-17T05:57:46.977Z,2.25
2023-01-17T06:00:13.819Z,1.92
2023-01-17T06:02:40.192Z,2.30
2023-01-17T06:05:06.795Z,2.72
2023-01-17T06:07:33.224Z,2.05
2023-01-17T06:09:59.649Z,2.47
2023-01-17T06:12:25.927Z,3.40
2023-01-17T06:14:52.267Z,2.78
2023-01-17T06:17:18.581Z,2.58
2023-01-17T06:19:45.487Z,2.42
2023-01-17T06:22:11.748Z,2.35
2023-01-17T06:24:37.975Z,3.15
2023-01-17T06:27:04.260Z,2.15
2023-01-17T06:29:30.624Z,4.97
2023-01-17T06:31:56.895Z,4.15
2023-01-17T06:34:23.187Z,2.88
2023-01-17T06:36:49.491Z,2.75
2023-01-17T06:39:15.778Z,2.75
2023-01-17T06:41:42.992Z,3.72
2023-01-17T06:44:09.656Z,2.85
2023-01-17T06:46:36.082Z,3.05
2023-01-17T06:49:02.404Z,2.97
2023-01-17T06:51:28.629Z,2.95
2023-01-17T06:53:54.919Z,3.50
2023-01-17T06:56:21.221Z,3.20
2023-01-17T06:58:50.976Z,3.45
2023-01-17T07:01:17.772Z,3.80
2023-01-17T07:03:44.557Z,3.22
2023-01-17T07:06:10.814Z,3.85
2023-01-17T07:08:37.242Z,4.30
2023-01-17T07:11:04.672Z,4.85
2023-01-17T07:13:36.149Z,6.00
2023-01-17T07:16:03.660Z,4.10
2023-01-17T07:18:30.340Z,3.83
2023-01-17T07:20:56.575Z,4.40
2023-01-17T07:23:23.919Z,3.67
2023-01-17T07:25:53.987Z,3.85
2023-01-17T07:28:20.257Z,3.88
2023-01-17T07:30:46.617Z,3.58
2023-01-17T07:33:12.852Z,4.22
2023-01-17T07:35:39.164Z,4.10
2023-01-17T07:38:05.857Z,4.65
2023-01-17T07:40:33.532Z,4.40
2023-01-17T07:43:14.671Z,4.80
2023-01-17T07:45:44.603Z,5.78
2023-01-17T07:48:11.361Z,5.10
2023-01-17T07:50:38.046Z,6.88
2023-01-17T07:53:04.551Z,4.30
2023-01-17T07:55:31.046Z,5.28
2023-01-17T07:57:57.361Z,4.68
2023-01-17T08:00:26.134Z,4.53
2023-01-17T08:02:55.276Z,4.40
2023-01-17T08:05:21.508Z,2.55
2023-01-17T08:07:47.759Z,3.30
2023-01-17T08:10:17.847Z,2.70
2023-01-17T08:12:47.762Z,2.15
2023-01-17T08:15:18.012Z,3.00
2023-01-17T08:17:48.128Z,3.33
2023-01-17T08:20:14.965Z,2.70
2023-01-17T08:22:41.332Z,2.30
2023-01-17T08:25:07.973Z,2.25
2023-01-17T08:27:36.174Z,2.83
2023-01-17T08:30:02.721Z,2.35
2023-01-17T08:32:28.941Z,2.53
2023-01-17T08:34:56.529Z,2.22
2023-01-17T08:37:22.878Z,2.45
2023-01-17T08:39:49.579Z,2.50
2023-01-17T08:42:15.977Z,2.13
2023-01-17T08:44:43.485Z,2.45
2023-01-17T08:47:09.948Z,2.20
2023-01-17T08:49:36.166Z,2.28
2023-01-17T08:52:02.445Z,1.88
2023-01-17T08:54:28.931Z,2.08
2023-01-17T08:56:55.743Z,2.05
2023-01-17T08:59:22.377Z,2.15
2023-01-17T09:01:48.769Z,2.30
2023-01-17T09:04:15.428Z,1.90
2023-01-17T09:06:42.982Z,2.72
2023-01-17T09:09:11.154Z,2.72
2023-01-17T09:11:37.930Z,3.47
2023-01-17T09:14:04.252Z,2.97
2023-01-17T09:16:30.954Z,3.28
2023-01-17T09:18:57.961Z,2.42
2023-01-17T09:21:24.991Z,2.97
2023-01-17T09:23:51.539Z,2.60
2023-01-17T09:26:20.409Z,2.88
2023-01-17T09:28:46.760Z,3.42
2023-01-17T09:31:13.092Z,3.28
2023-01-17T09:33:42.582Z,3.45
2023-01-17T09:36:09.566Z,2.80
2023-01-17T09:38:36.296Z,3.45
2023-01-17T09:41:02.816Z,3.72
2023-01-17T09:43:41.244Z,3.63
2023-01-17T09:46:14.056Z,3.28
2023-01-17T09:48:40.655Z,3.63
2023-01-17T09:51:14.269Z,3.97
2023-01-17T09:53:41.666Z,3.28
2023-01-17T09:56:11.753Z,3.33
2023-01-17T09:58:46.432Z,3.80
2023-01-17T10:01:29.673Z,4.72
2023-01-17T10:04:05.037Z,4.72
2023-01-17T10:06:31.513Z,4.97
2023-01-17T10:09:08.015Z,5.43
2023-01-17T10:11:46.497Z,4.40
2023-01-17T10:14:31.309Z,4.90
2023-01-17T10:17:06.578Z,4.85
2023-01-17T10:19:48.031Z,5.75
2023-01-17T10:22:39.515Z,5.40
2023-01-17T10:25:21.091Z,4.72
2023-01-17T10:28:13.542Z,4.88
2023-01-17T10:30:45.049Z,5.22
2023-01-17T10:33:17.590Z,4.20
2023-01-17T10:35:52.983Z,4.60
2023-01-17T10:38:20.517Z,4.90
2023-01-17T10:40:54.786Z,4.68
2023-01-17T10:43:44.175Z,4.32
2023-01-17T10:46:21.868Z,4.22
2023-01-17T10:48:50.509Z,4.70
2023-01-17T10:51:20.135Z,4.85
2023-01-17T10:53:49.945Z,4.50
2023-01-17T10:56:17.152Z,4.17
2023-01-17T10:58:43.505Z,5.20
2023-01-17T11:01:16.740Z,4.95
2023-01-17T11:03:44.982Z,5.55
2023-01-17T11:06:16.223Z,4.63
2023-01-17T11:08:53.098Z,4.20
2023-01-17T11:11:20.748Z,4.47
2023-01-17T11:13:48.459Z,4.07
2023-01-17T11:16:22.889Z,4.18
2023-01-17T11:19:05.228Z,4.75
2023-01-17T11:21:32.060Z,4.65
2023-01-17T11:24:08.432Z,4.50
2023-01-17T11:26:36.002Z,3.70
2023-01-17T11:29:22.559Z,3.45
2023-01-17T11:31:48.814Z,4.57
2023-01-17T11:34:17.294Z,4.13
2023-01-17T11:36:43.885Z,4.03
2023-01-17T11:39:30.399Z,3.50
2023-01-17T11:41:56.799Z,3.65
2023-01-17T11:44:30.495Z,4.32
2023-01-17T11:47:11.869Z,3.72
2023-01-17T11:49:38.991Z,4.80
2023-01-17T11:52:16.339Z,5.10
2023-01-17T11:54:44.338Z,4.13
2023-01-17T11:57:34.224Z,4.85
2023-01-17T12:00:15.475Z,3.53
2023-01-17T12:03:00.251Z,3.33
2023-01-17T12:05:38.771Z,2.88
2023-01-17T12:08:05.046Z,3.53
2023-01-17T12:10:34.186Z,3.30
2023-01-17T12:13:25.456Z,3.20
2023-01-17T12:15:54.755Z,2.88
2023-01-17T12:18:36.212Z,3.30
2023-01-17T12:21:12.286Z,2.50
2023-01-17T12:23:41.795Z,2.55
2023-01-17T12:26:26.393Z,2.33
2023-01-17T12:28:52.596Z,2.60
2023-01-17T12:31:18.872Z,2.33
2023-01-17T12:33:45.731Z,2.00
2023-01-17T12:36:31.061Z,2.67
2023-01-17T12:38:58.640Z,1.90
2023-01-17T12:41:28.695Z,1.98
2023-01-17T12:43:59.529Z,1.80
2023-01-17T12:46:43.149Z,2.13
2023-01-17T12:49:38.641Z,1.83
2023-01-17T12:52:19.154Z,2.10
2023-01-17T12:54:47.819Z,2.25
2023-01-17T12:57:14.248Z,2.60
2023-01-17T12:59:58.260Z,1.90
2023-01-17T13:02:43.344Z,2.05
2023-01-17T13:05:18.443Z,2.50
2023-01-17T13:07:49.508Z,2.20
2023-01-17T13:10:22.188Z,2.55
2023-01-17T13:12:49.521Z,2.58
2023-01-17T13:15:17.323Z,2.10
2023-01-17T13:17:48.491Z,2.10
2023-01-17T13:20:19.574Z,2.75
2023-01-17T13:22:46.038Z,2.08
2023-01-17T13:25:12.255Z,2.20
2023-01-17T13:27:46.533Z,2.15
2023-01-17T13:30:16.046Z,2.55
2023-01-17T13:32:54.421Z,2.03
2023-01-17T13:35:26.632Z,2.42
2023-01-17T13:38:07.897Z,1.85
2023-01-17T13:40:54.220Z,2.00
2023-01-17T13:43:25.864Z,2.10
2023-01-17T13:45:53.479Z,2.00
2023-01-17T13:48:19.752Z,2.15
2023-01-17T13:50:50.386Z,2.30
2023-01-17T13:55:46.742Z,2.10
2023-01-17T13:58:31.576Z,2.10
2023-01-17T14:00:57.962Z,1.92
2023-01-17T14:04:02.116Z,2.28
2023-01-17T14:06:46.417Z,1.85
2023-01-17T14:09:12.716Z,1.70
2023-01-17T14:11:53.168Z,1.98
2023-01-17T14:14:38.114Z,1.40
2023-01-17T14:17:16.265Z,1.90
2023-01-17T14:19:45.542Z,2.10
2023-01-17T14:22:20.908Z,2.72
2023-01-17T14:25:09.618Z,2.10
2023-01-17T14:27:44.798Z,1.67
2023-01-17T14:30:17.337Z,2.40
2023-01-17T14:32:58.600Z,2.10
2023-01-17T14:35:27.698Z,1.80
2023-01-17T14:37:54.266Z,2.00
2023-01-17T14:40:21.908Z,1.63
2023-01-17T14:42:53.704Z,1.77
2023-01-17T14:45:23.869Z,1.73
2023-01-17T14:47:51.471Z,1.55
2023-01-17T14:50:17.748Z,2.25
2023-01-17T14:52:47.053Z,1.88
2023-01-17T14:55:20.265Z,1.73
2023-01-17T14:57:53.689Z,2.65
2023-01-17T15:00:20.372Z,1.48
2023-01-17T15:02:48.029Z,2.75
2023-01-17T15:05:15.708Z,2.28
2023-01-17T15:07:43.579Z,1.90
2023-01-17T15:10:14.705Z,2.17
2023-01-17T15:12:46.397Z,1.70
2023-01-17T15:15:32.097Z,2.45
2023-01-17T15:18:08.113Z,2.45
2023-01-17T15:20:34.656Z,2.50
2023-01-17T15:23:00.989Z,3.85
2023-01-17T15:25:27.370Z,3.72
2023-01-17T15:27:53.659Z,3.95
2023-01-17T15:30:22.157Z,4.85
2023-01-17T15:32:49.358Z,3.30
2023-01-17T15:35:17.113Z,3.22
2023-01-17T15:37:43.391Z,3.53
2023-01-17T15:40:19.701Z,3.80
2023-01-17T15:42:47.624Z,3.60
2023-01-17T15:45:19.929Z,4.40
2023-01-17T15:47:46.522Z,3.20
2023-01-17T15:50:28.518Z,3.63
2023-01-17T15:52:56.459Z,3.28
2023-01-17T15:55:30.479Z,3.33
2023-01-17T15:57:56.927Z,4.03
2023-01-17T16:00:26.693Z,2.40
2023-01-17T16:02:58.743Z,2.20
2023-01-17T16:05:25.684Z,4.00
2023-01-17T16:08:16.064Z,4.38
2023-01-17T16:10:43.123Z,10.90
2023-01-17T16:13:10.741Z,4.32
2023-01-17T16:15:37.902Z,3.20
2023-01-17T16:18:06.583Z,3.65
2023-01-17T16:20:34.512Z,4.82
2023-01-17T16:23:00.806Z,22.48
2023-01-17T16:25:32.241Z,15.40
2023-01-17T16:27:59.215Z,4.38
2023-01-17T16:30:25.471Z,3.47
2023-01-17T16:32:51.830Z,4.10
2023-01-17T16:35:22.440Z,3.67
2023-01-17T16:37:49.849Z,5.82
2023-01-17T16:40:16.666Z,6.50
2023-01-17T16:42:43.403Z,3.92
2023-01-17T16:45:10.663Z,4.03
2023-01-17T16:47:37.398Z,4.35
2023-01-17T16:50:03.919Z,4.85
2023-01-17T16:52:30.248Z,4.63
2023-01-17T16:54:56.565Z,4.20
2023-01-17T16:57:22.946Z,3.63
2023-01-17T16:59:50.861Z,2.95
2023-01-17T17:02:18.530Z,4.05
2023-01-17T17:04:45.014Z,4.40
2023-01-17T17:07:11.351Z,3.70
2023-01-17T17:09:37.917Z,4.05
2023-01-17T17:12:05.281Z,6.55
2023-01-17T17:14:31.575Z,8.23
2023-01-17T17:16:57.846Z,9.10
2023-01-17T17:19:24.386Z,7.35
2023-01-17T17:21:50.718Z,7.30
2023-01-17T17:24:19.829Z,6.07
2023-01-17T17:26:46.147Z,6.72
2023-01-17T17:29:14.475Z,5.68
2023-01-17T17:31:42.030Z,7.30
2023-01-17T17:34:10.518Z,5.93
2023-01-17T17:36:36.818Z,7.07
2023-01-17T17:39:04.759Z,7.57
2023-01-17T17:41:32.119Z,10.48
2023-01-17T17:43:59.897Z,6.90
2023-01-17T17:46:27.290Z,7.93
2023-01-17T17:48:53.622Z,7.65
2023-01-17T17:51:28.821Z,8.77
2023-01-17T17:53:56.074Z,9.50
2023-01-17T17:56:23.522Z,10.43
2023-01-17T17:58:49.919Z,10.55
2023-01-17T18:01:16.528Z,6.30
2023-01-17T18:03:42.944Z,5.82
2023-01-17T18:06:10.268Z,6.07
2023-01-17T18:08:37.182Z,8.93
2023-01-17T18:11:05.076Z,8.98
2023-01-17T18:13:31.931Z,14.18
2023-01-17T18:16:02.112Z,19.27
2023-01-17T18:18:28.708Z,15.90
2023-01-17T18:20:55.013Z,15.75
2023-01-17T18:23:21.349Z,14.13
2023-01-17T18:25:48.057Z,13.85
2023-01-17T18:28:14.588Z,10.93
2023-01-17T18:30:40.892Z,15.48
2023-01-17T18:33:07.180Z,18.65
2023-01-17T18:35:33.479Z,12.15
2023-01-17T18:37:59.780Z,20.45
2023-01-17T18:40:26.068Z,16.08
2023-01-17T18:42:52.750Z,11.07
2023-01-17T18:45:19.189Z,11.38
2023-01-17T18:47:45.489Z,9.63
2023-01-17T18:50:11.722Z,11.75
2023-01-17T18:52:38.699Z,10.57
2023-01-17T18:55:05.145Z,19.40
2023-01-17T18:57:31.460Z,15.75
2023-01-17T18:59:57.745Z,14.27
2023-01-17T19:02:24.135Z,14.38
2023-01-17T19:04:50.393Z,24.17
2023-01-17T19:07:16.668Z,31.45
2023-01-17T19:09:44.036Z,30.75
2023-01-17T19:12:10.352Z,30.52
2023-01-17T19:14:36.676Z,10.80
2023-01-17T19:17:03.053Z,6.65
2023-01-17T19:19:29.341Z,5.43
2023-01-17T19:21:55.623Z,8.07
2023-01-17T19:24:21.912Z,10.63
2023-01-17T19:26:51.070Z,13.73
2023-01-17T19:29:17.379Z,19.92
2023-01-17T19:31:43.970Z,20.20
2023-01-17T19:34:11.088Z,14.05
2023-01-17T19:36:37.974Z,7.20
2023-01-17T19:39:06.721Z,6.97
2023-01-17T19:41:34.323Z,6.70
2023-01-17T19:44:02.168Z,5.97
2023-01-17T19:46:28.836Z,5.53
2023-01-17T19:48:55.881Z,5.65
2023-01-17T19:51:22.805Z,5.68
2023-01-17T19:53:49.183Z,6.30
2023-01-17T19:56:19.973Z,6.45
2023-01-17T19:58:46.561Z,5.65
2023-01-17T20:01:14.687Z,5.82
2023-01-17T20:03:44.262Z,6.35
2023-01-17T20:06:12.075Z,6.60
2023-01-17T20:08:38.607Z,6.43
2023-01-17T20:11:05.907Z,6.80
2023-01-17T20:13:32.406Z,8.68
2023-01-17T20:16:05.346Z,8.63
2023-01-17T20:18:31.949Z,7.95
2023-01-17T20:21:02.399Z,10.23
2023-01-17T20:23:28.783Z,7.22
2023-01-17T20:26:04.637Z,10.13
2023-01-17T20:28:35.402Z,8.27
2023-01-17T20:33:27.843Z,6.60
2023-01-17T20:36:09.136Z,6.85
2023-01-17T20:38:46.081Z,8.15
2023-01-17T20:41:32.325Z,7.13
2023-01-17T20:43:59.839Z,8.40
2023-01-17T20:46:27.408Z,8.45
2023-01-17T20:48:56.006Z,8.68
2023-01-17T20:51:23.158Z,7.65
2023-01-17T20:53:53.449Z,7.78
2023-01-17T20:56:19.743Z,8.35
2023-01-17T20:58:46.396Z,7.72
2023-01-17T21:01:13.739Z,7.93
2023-01-17T21:03:40.169Z,7.97
2023-01-17T21:06:07.551Z,9.18
2023-01-17T21:08:35.027Z,9.98
2023-01-17T21:11:01.599Z,9.95
2023-01-17T21:13:28.171Z,9.57
2023-01-17T21:15:54.744Z,9.95
2023-01-17T21:18:22.320Z,9.73
2023-01-17T21:20:49.099Z,10.55
2023-01-17T21:23:18.624Z,11.60
2023-01-17T21:25:55.661Z,11.00
2023-01-17T21:28:22.751Z,11.00
2023-01-17T21:30:52.139Z,10.35
2023-01-17T21:33:19.271Z,9.98
2023-01-17T21:35:45.577Z,10.55
2023-01-17T21:38:12.776Z,10.68
2023-01-17T21:40:39.504Z,9.38
2023-01-17T21:43:05.811Z,8.85
2023-01-17T21:45:35.669Z,8.63
2023-01-17T21:48:02.085Z,8.63
2023-01-17T21:50:33.395Z,10.82
2023-01-17T21:53:00.115Z,12.07
2023-01-17T21:55:45.117Z,11.98
2023-01-17T21:58:36.065Z,12.50
2023-01-17T22:01:10.969Z,11.77
2023-01-17T22:03:37.530Z,9.75
2023-01-17T22:06:04.856Z,9.82
2023-01-17T22:08:32.100Z,9.18
2023-01-17T22:11:02.050Z,9.40
2023-01-17T22:13:30.244Z,8.80
2023-01-17T22:16:00.374Z,9.65
2023-01-17T22:18:27.088Z,9.48
2023-01-17T22:20:53.374Z,7.68
2023-01-17T22:23:20.458Z,7.43
2023-01-17T22:25:46.891Z,8.15
2023-01-17T22:28:13.347Z,7.00
2023-01-17T22:30:39.669Z,6.90
2023-01-17T22:33:06.048Z,7.45
2023-01-17T22:35:32.634Z,6.43
2023-01-17T22:37:58.991Z,7.25
2023-01-17T22:40:26.062Z,7.03
2023-01-17T22:42:52.448Z,8.32
2023-01-17T22:45:19.266Z,10.20
2023-01-17T22:47:45.512Z,10.77
2023-01-17T22:50:12.252Z,10.73
2023-01-17T22:52:38.557Z,9.68
2023-01-17T22:55:05.306Z,8.55
2023-01-17T22:57:31.599Z,9.48
2023-01-17T22:59:57.828Z,9.13
2023-01-17T23:02:24.175Z,10.82
2023-01-17T23:04:50.507Z,9.40
2023-01-17T23:07:16.840Z,10.15
2023-01-17T23:09:43.088Z,9.07
2023-01-17T23:12:09.453Z,10.25
2023-01-17T23:14:54.586Z,9.40
2023-01-17T23:17:39.807Z,9.43
2023-01-17T23:20:07.815Z,8.43
2023-01-17T23:22:34.315Z,8.45
2023-01-17T23:25:14.211Z,9.00
2023-01-17T23:28:00.616Z,8.37
2023-01-17T23:30:48.013Z,8.77
2023-01-17T23:33:15.103Z,8.55
2023-01-17T23:35:42.840Z,9.35
2023-01-17T23:38:30.981Z,8.13
2023-01-17T23:41:26.072Z,8.10
2023-01-17T23:43:53.458Z,8.60
2023-01-17T23:46:20.180Z,8.63
2023-01-17T23:48:46.666Z,8.65
2023-01-17T23:51:13.039Z,8.52
2023-01-17T23:53:39.776Z,8.50
2023-01-17T23:56:07.304Z,8.80
2023-01-17T23:58:33.937Z,8.70
